createdAt,value
2019-05-17T00:02:37.471Z,6.40
2019-05-17T00:05:07.600Z,6.50
2019-05-17T00:07:36.943Z,6.40
2019-05-17T00:10:09.378Z,6.50
2019-05-17T00:12:37.920Z,6.80
2019-05-17T00:15:07.602Z,6.60
2019-05-17T00:17:37.828Z,6.60
2019-05-17T00:20:10.287Z,6.50
2019-05-17T00:22:38.821Z,7.30
2019-05-17T00:25:08.529Z,6.70
2019-05-17T00:27:37.749Z,6.70
2019-05-17T00:30:08.331Z,6.70
2019-05-17T00:32:37.081Z,6.60
2019-05-17T00:35:07.756Z,6.70
2019-05-17T00:37:37.384Z,6.60
2019-05-17T00:40:09.833Z,6.70
2019-05-17T00:42:38.372Z,6.70
2019-05-17T00:45:07.972Z,6.70
2019-05-17T00:47:37.434Z,6.80
2019-05-17T00:50:07.834Z,7.00
2019-05-17T00:52:37.022Z,6.90
2019-05-17T00:55:09.296Z,7.00
2019-05-17T00:57:37.839Z,6.90
2019-05-17T01:00:08.485Z,7.00
2019-05-17T01:02:37.111Z,7.10
2019-05-17T01:05:07.112Z,7.10
2019-05-17T01:07:37.624Z,7.30
2019-05-17T01:10:08.175Z,7.20
2019-05-17T01:12:36.890Z,7.40
2019-05-17T01:15:07.576Z,7.70
2019-05-17T01:17:36.660Z,7.20
2019-05-17T01:20:10.132Z,7.50
2019-05-17T01:22:38.702Z,6.80
2019-05-17T01:25:08.385Z,7.40
2019-05-17T01:30:09.555Z,7.90
2019-05-17T01:32:38.118Z,7.20
2019-05-17T01:35:07.684Z,7.10
2019-05-17T01:37:36.902Z,6.90
2019-05-17T01:40:07.760Z,7.00
2019-05-17T01:42:37.457Z,7.00
2019-05-17T01:45:07.994Z,7.00
2019-05-17T01:47:36.991Z,7.30
2019-05-17T01:50:09.209Z,7.00
2019-05-17T01:52:37.823Z,7.20
2019-05-17T01:55:09.316Z,7.30
2019-05-17T01:57:37.904Z,7.30
2019-05-17T02:00:08.769Z,7.00
2019-05-17T02:02:38.972Z,7.00
2019-05-17T02:05:08.775Z,7.50
2019-05-17T02:07:37.429Z,7.20
2019-05-17T02:10:07.559Z,7.00
2019-05-17T02:12:37.158Z,7.00
2019-05-17T02:15:08.651Z,6.90
2019-05-17T02:17:37.512Z,7.10
2019-05-17T02:20:07.752Z,7.10
2019-05-17T02:22:36.788Z,7.10
2019-05-17T02:25:07.673Z,7.10
2019-05-17T02:27:41.282Z,7.00
2019-05-17T02:30:07.955Z,7.00
2019-05-17T02:32:38.362Z,7.00
2019-05-17T02:35:07.334Z,7.30
2019-05-17T02:37:35.908Z,7.20
2019-05-17T02:40:08.561Z,7.30
2019-05-17T02:42:37.435Z,7.20
2019-05-17T02:45:06.217Z,7.30
2019-05-17T02:47:34.852Z,7.30
2019-05-17T02:50:05.514Z,7.40
2019-05-17T02:52:34.611Z,7.30
2019-05-17T03:10:16.521Z,7.20
2019-05-17T03:17:33.922Z,7.60
2019-05-17T03:40:04.780Z,7.40
2019-05-17T03:52:33.285Z,7.50
2019-05-17T04:00:03.835Z,7.60
2019-05-17T04:02:32.664Z,7.30
2019-05-17T04:05:04.290Z,7.50
2019-05-17T04:10:04.518Z,7.50
2019-05-17T04:15:03.209Z,7.60
2019-05-17T04:20:03.589Z,7.60
2019-05-17T04:22:33.078Z,7.70
2019-05-17T04:25:03.016Z,7.70
2019-05-17T04:27:32.677Z,7.70
2019-05-17T04:30:03.582Z,7.50
2019-05-17T04:32:33.089Z,7.70
2019-05-17T04:35:03.741Z,7.70
2019-05-17T04:37:33.934Z,7.90
2019-05-17T04:40:03.487Z,8.00
2019-05-17T04:42:33.066Z,7.90
2019-05-17T04:45:03.768Z,7.50
2019-05-17T04:47:33.196Z,7.50
2019-05-17T04:50:03.926Z,7.60
2019-05-17T04:52:33.634Z,7.70
2019-05-17T04:55:04.017Z,7.80
2019-05-17T04:57:32.738Z,7.80
2019-05-17T05:02:32.956Z,8.00
2019-05-17T05:07:33.525Z,8.20
2019-05-17T05:15:03.505Z,8.50
2019-05-17T05:17:32.906Z,8.40
2019-05-17T05:20:02.780Z,8.60
2019-05-17T05:22:33.068Z,8.80
2019-05-17T05:25:02.265Z,8.70
2019-05-17T05:32:28.503Z,9.10
2019-05-17T05:34:57.067Z,9.00
2019-05-17T05:37:25.631Z,9.50
2019-05-17T05:39:54.734Z,8.90
2019-05-17T05:42:23.351Z,9.10
2019-05-17T05:44:52.229Z,9.50
2019-05-17T05:47:22.186Z,9.50
2019-05-17T05:54:52.061Z,9.50
2019-05-17T05:59:51.797Z,10.10
2019-05-17T06:02:21.774Z,10.10
2019-05-17T06:04:51.852Z,9.80
2019-05-17T06:07:21.617Z,10.20
2019-05-17T06:09:51.757Z,10.40
2019-05-17T06:12:24.796Z,10.20
2019-05-17T06:14:52.357Z,10.20
2019-05-17T06:19:51.723Z,10.50
2019-05-17T06:22:22.414Z,10.40
2019-05-17T06:24:52.011Z,10.60
2019-05-17T06:27:21.511Z,10.80
2019-05-17T06:29:51.523Z,10.60
2019-05-17T06:32:22.818Z,10.80
2019-05-17T06:34:51.492Z,11.00
2019-05-17T06:37:22.215Z,11.10
2019-05-17T06:39:52.488Z,11.10
2019-05-17T06:42:22.943Z,11.00
2019-05-17T06:44:52.384Z,10.90
2019-05-17T06:47:22.565Z,11.20
2019-05-17T06:49:53.462Z,11.40
2019-05-17T06:57:23.189Z,11.40
2019-05-17T07:02:19.807Z,11.70
2019-05-17T07:04:50.731Z,11.70
2019-05-17T07:07:30.174Z,11.40
2019-05-17T07:10:00.895Z,11.60
2019-05-17T07:12:30.722Z,11.90
2019-05-17T07:15:01.714Z,11.90
2019-05-17T07:17:30.427Z,12.20
2019-05-17T07:19:59.726Z,11.90
2019-05-17T07:22:29.617Z,12.30
2019-05-17T07:24:59.721Z,12.70
2019-05-17T07:27:38.763Z,12.70
2019-05-17T07:29:59.236Z,12.70
2019-05-17T07:32:29.793Z,12.50
2019-05-17T07:34:59.993Z,12.70
2019-05-17T07:37:30.404Z,12.70
2019-05-17T07:40:04.488Z,12.80
2019-05-17T07:42:29.817Z,12.70
2019-05-17T07:45:00.575Z,13.00
2019-05-17T07:47:29.473Z,13.20
2019-05-17T07:50:00.716Z,13.10
2019-05-17T07:52:29.994Z,13.10
2019-05-17T07:55:02.349Z,12.90
2019-05-17T07:57:29.946Z,13.20
2019-05-17T08:00:00.021Z,13.30
2019-05-17T08:02:30.730Z,13.20
2019-05-17T08:05:00.546Z,13.40
2019-05-17T08:07:30.190Z,13.60
2019-05-17T08:10:00.176Z,14.00
2019-05-17T08:12:30.505Z,13.90
2019-05-17T08:14:59.846Z,14.20
2019-05-17T08:17:30.453Z,14.00
2019-05-17T08:20:00.672Z,14.20
2019-05-17T08:22:29.445Z,14.30
2019-05-17T08:25:00.086Z,14.60
2019-05-17T08:27:29.662Z,14.40
2019-05-17T08:29:59.595Z,14.70
2019-05-17T08:32:31.350Z,14.70
2019-05-17T08:35:00.292Z,14.70
2019-05-17T08:37:30.205Z,14.70
2019-05-17T08:40:00.152Z,14.80
2019-05-17T08:42:30.022Z,14.90
2019-05-17T08:45:00.215Z,15.10
2019-05-17T08:47:30.069Z,15.00
2019-05-17T08:50:00.506Z,14.90
2019-05-17T08:52:29.473Z,14.90
2019-05-17T08:55:00.189Z,15.00
2019-05-17T08:57:30.276Z,15.20
2019-05-17T09:00:00.836Z,15.10
2019-05-17T09:02:29.873Z,15.00
2019-05-17T09:05:00.481Z,15.00
2019-05-17T09:07:29.530Z,14.90
2019-05-17T09:09:58.589Z,15.00
2019-05-17T09:12:29.848Z,15.40
2019-05-17T09:14:57.321Z,15.50
2019-05-17T09:17:25.886Z,15.30
2019-05-17T09:19:54.557Z,15.30
2019-05-17T09:24:51.332Z,15.90
2019-05-17T09:27:19.984Z,15.60
2019-05-17T09:29:49.738Z,15.40
2019-05-17T09:32:20.193Z,15.70
2019-05-17T09:34:49.821Z,15.40
2019-05-17T09:37:22.137Z,15.70
2019-05-17T09:39:49.289Z,15.40
2019-05-17T09:42:20.459Z,15.50
2019-05-17T09:44:49.678Z,15.50
2019-05-17T09:47:20.537Z,15.60
2019-05-17T09:49:50.180Z,15.90
2019-05-17T09:52:20.004Z,16.10
2019-05-17T09:54:50.430Z,16.50
2019-05-17T09:57:20.451Z,16.40
2019-05-17T09:59:49.663Z,17.10
2019-05-17T10:02:20.418Z,17.00
2019-05-17T10:04:50.252Z,16.60
2019-05-17T10:09:50.171Z,17.10
2019-05-17T10:12:20.287Z,16.70
2019-05-17T10:15:10.072Z,17.00
2019-05-17T10:17:38.962Z,16.70
2019-05-17T10:20:10.794Z,17.20
2019-05-17T10:22:40.227Z,17.90
2019-05-17T10:30:10.351Z,17.60
2019-05-17T10:32:40.785Z,17.40
2019-05-17T10:35:10.306Z,17.70
2019-05-17T10:37:40.673Z,17.80
2019-05-17T10:40:10.850Z,17.80
2019-05-17T10:42:39.935Z,17.80
2019-05-17T10:45:11.011Z,17.90
2019-05-17T10:50:10.879Z,17.40
2019-05-17T10:52:41.001Z,17.50
2019-05-17T10:55:10.889Z,17.90
2019-05-17T10:57:39.820Z,17.90
2019-05-17T11:02:39.190Z,18.40
2019-05-17T11:05:10.611Z,18.40
2019-05-17T11:10:11.382Z,18.00
2019-05-17T11:12:38.651Z,18.10
2019-05-17T11:15:11.451Z,18.30
2019-05-17T11:17:38.515Z,17.90
2019-05-17T11:22:36.402Z,18.50
2019-05-17T11:25:07.997Z,18.60
2019-05-17T11:27:36.730Z,18.50
2019-05-17T11:35:04.437Z,18.30
2019-05-17T11:37:32.979Z,18.20
2019-05-17T11:40:01.568Z,18.70
2019-05-17T11:42:30.101Z,18.20
2019-05-17T11:44:58.691Z,18.30
2019-05-17T11:47:27.231Z,18.30
2019-05-17T11:49:55.788Z,18.50
2019-05-17T11:52:24.351Z,18.10
2019-05-17T11:54:52.979Z,18.70
2019-05-17T11:57:21.523Z,18.60
2019-05-17T11:59:50.087Z,18.90
2019-05-17T12:02:21.360Z,19.00
2019-05-17T12:04:48.839Z,18.80
2019-05-17T12:07:17.463Z,19.20
2019-05-17T12:09:46.028Z,19.40
2019-05-17T12:12:14.589Z,19.10
2019-05-17T12:14:43.145Z,18.80
2019-05-17T12:17:11.685Z,18.90
2019-05-17T12:19:40.340Z,18.10
2019-05-17T12:22:08.884Z,18.80
2019-05-17T12:24:37.516Z,18.60
2019-05-17T12:29:34.337Z,18.80
2019-05-17T12:32:02.928Z,18.70
2019-05-17T12:34:31.517Z,18.70
2019-05-17T12:37:00.013Z,19.00
2019-05-17T12:39:28.664Z,18.70
2019-05-17T12:41:57.273Z,19.10
2019-05-17T12:44:26.053Z,19.20
2019-05-17T12:46:54.591Z,19.30
2019-05-17T12:49:23.240Z,19.30
2019-05-17T12:51:51.774Z,19.30
2019-05-17T12:54:20.424Z,19.30
2019-05-17T12:56:48.981Z,19.20
2019-05-17T12:59:17.543Z,19.00
2019-05-17T13:04:14.345Z,19.00
2019-05-17T13:06:42.951Z,18.80
2019-05-17T13:09:11.536Z,19.00
2019-05-17T13:11:40.071Z,19.10
2019-05-17T13:14:08.607Z,19.10
2019-05-17T13:16:37.172Z,19.40
2019-05-17T13:19:05.708Z,18.90
2019-05-17T13:21:34.263Z,19.30
2019-05-17T13:24:02.821Z,19.40
2019-05-17T13:26:34.452Z,19.50
2019-05-17T13:29:03.065Z,19.50
2019-05-17T13:31:31.644Z,19.00
2019-05-17T13:34:00.180Z,19.30
2019-05-17T13:36:28.758Z,19.10
2019-05-17T13:38:57.305Z,19.70
2019-05-17T13:41:26.524Z,19.70
2019-05-17T13:43:55.087Z,20.00
2019-05-17T13:46:32.779Z,19.90
2019-05-17T13:48:53.860Z,20.00
2019-05-17T13:51:22.488Z,20.10
2019-05-17T13:53:51.029Z,20.30
2019-05-17T13:56:19.667Z,20.10
2019-05-17T13:58:48.232Z,19.80
2019-05-17T14:01:16.790Z,19.60
2019-05-17T14:03:45.433Z,19.70
2019-05-17T14:06:13.973Z,19.40
2019-05-17T14:11:10.830Z,19.90
2019-05-17T14:13:39.378Z,19.20
2019-05-17T14:16:07.960Z,19.60
2019-05-17T14:18:36.521Z,19.60
2019-05-17T14:21:05.104Z,19.70
2019-05-17T14:23:33.676Z,19.80
2019-05-17T14:26:02.299Z,19.90
2019-05-17T14:28:30.785Z,20.40
2019-05-17T14:30:59.349Z,19.90
2019-05-17T14:35:56.120Z,20.20
2019-05-17T14:38:24.701Z,19.70
2019-05-17T14:41:06.772Z,19.90
2019-05-17T14:43:23.447Z,19.60
2019-05-17T14:45:52.081Z,19.80
2019-05-17T14:50:48.853Z,20.20
2019-05-17T14:53:17.460Z,19.70
2019-05-17T14:55:46.018Z,20.00
2019-05-17T14:58:14.596Z,20.30
2019-05-17T15:00:43.129Z,20.20
2019-05-17T15:03:11.692Z,20.10
2019-05-17T15:05:40.256Z,20.20
2019-05-17T15:08:08.811Z,19.70
2019-05-17T15:10:37.348Z,19.80
2019-05-17T15:13:05.927Z,19.90
2019-05-17T15:15:34.535Z,19.80
2019-05-17T15:18:03.195Z,20.10
2019-05-17T15:20:31.733Z,20.00
2019-05-17T15:23:00.297Z,20.20
2019-05-17T15:25:28.836Z,19.80
2019-05-17T15:27:57.401Z,20.10
2019-05-17T15:32:54.182Z,20.10
2019-05-17T15:35:22.729Z,20.10
2019-05-17T15:37:51.315Z,20.50
2019-05-17T15:40:19.873Z,19.70
2019-05-17T15:42:48.496Z,20.00
2019-05-17T15:45:17.107Z,19.80
2019-05-17T15:47:45.772Z,20.30
2019-05-17T15:50:14.488Z,20.40
2019-05-17T15:55:11.740Z,19.80
2019-05-17T15:57:40.295Z,19.90
2019-05-17T16:00:09.469Z,19.90
2019-05-17T16:02:38.365Z,20.10
2019-05-17T16:05:07.455Z,20.20
2019-05-17T16:10:06.976Z,20.30
2019-05-17T16:12:35.553Z,20.20
2019-05-17T16:17:33.399Z,20.40
2019-05-17T16:20:02.027Z,20.00
2019-05-17T16:22:30.585Z,20.20
2019-05-17T16:27:27.379Z,19.90
2019-05-17T16:29:55.915Z,19.90
2019-05-17T16:32:24.557Z,19.70
2019-05-17T16:34:53.085Z,19.80
2019-05-17T16:37:21.647Z,19.70
2019-05-17T16:39:50.247Z,20.10
2019-05-17T16:42:18.926Z,19.30
2019-05-17T16:44:47.473Z,19.60
2019-05-17T16:47:16.000Z,19.30
2019-05-17T16:49:44.591Z,19.50
2019-05-17T16:52:13.128Z,19.40
2019-05-17T16:54:41.686Z,19.70
2019-05-17T16:57:10.322Z,19.80
2019-05-17T16:59:38.949Z,19.70
2019-05-17T17:07:04.156Z,19.30
2019-05-17T17:09:32.718Z,19.50
2019-05-17T17:12:01.271Z,19.40
2019-05-17T17:14:31.168Z,19.60
2019-05-17T17:16:59.797Z,19.70
2019-05-17T17:19:28.508Z,19.40
2019-05-17T17:21:57.120Z,19.60
2019-05-17T17:24:25.775Z,19.20
2019-05-17T17:26:54.382Z,19.20
2019-05-17T17:29:22.940Z,19.50
2019-05-17T17:31:51.525Z,19.20
2019-05-17T17:34:20.084Z,18.90
2019-05-17T17:36:48.619Z,19.30
2019-05-17T17:39:17.175Z,19.20
2019-05-17T17:41:46.003Z,19.30
2019-05-17T17:44:14.583Z,18.90
2019-05-17T17:46:43.144Z,19.00
2019-05-17T17:49:11.705Z,18.60
2019-05-17T17:51:40.336Z,18.30
2019-05-17T17:54:08.897Z,18.50
2019-05-17T17:56:37.434Z,18.40
2019-05-17T17:59:06.086Z,18.60
2019-05-17T18:01:34.716Z,18.50
2019-05-17T18:04:03.283Z,18.10
2019-05-17T18:06:31.819Z,18.00
2019-05-17T18:09:00.384Z,18.50
2019-05-17T18:11:28.944Z,18.40
2019-05-17T18:14:12.171Z,17.80
2019-05-17T18:16:27.775Z,17.70
2019-05-17T18:18:56.334Z,17.60
2019-05-17T18:21:24.912Z,17.90
2019-05-17T18:23:53.453Z,17.80
2019-05-17T18:26:22.017Z,17.20
2019-05-17T18:28:50.555Z,17.80
2019-05-17T18:31:19.118Z,17.30
2019-05-17T18:33:47.723Z,17.00
2019-05-17T18:36:16.313Z,17.20
2019-05-17T18:38:47.912Z,17.30
2019-05-17T18:41:16.495Z,16.80
2019-05-17T18:43:45.031Z,17.40
2019-05-17T18:46:13.668Z,16.70
2019-05-17T18:48:42.200Z,17.30
2019-05-17T18:53:39.108Z,17.00
2019-05-17T18:56:07.659Z,16.70
2019-05-17T18:58:39.193Z,16.80
2019-05-17T19:01:06.434Z,16.70
2019-05-17T19:03:34.967Z,16.50
2019-05-17T19:06:03.632Z,16.50
2019-05-17T19:08:32.164Z,16.50
2019-05-17T19:13:28.941Z,16.40
2019-05-17T19:15:57.505Z,16.30
2019-05-17T19:18:26.057Z,16.30
2019-05-17T19:20:54.606Z,15.70
2019-05-17T19:23:25.805Z,16.10
2019-05-17T19:25:53.383Z,15.80
2019-05-17T19:28:21.988Z,15.90
2019-05-17T19:30:50.594Z,15.70
2019-05-17T19:33:19.176Z,15.30
2019-05-17T19:35:47.736Z,15.60
2019-05-17T19:38:16.341Z,15.30
2019-05-17T19:40:44.919Z,14.70
2019-05-17T19:43:13.451Z,15.00
2019-05-17T19:45:42.116Z,14.60
2019-05-17T19:48:10.672Z,14.80
2019-05-17T19:50:39.268Z,14.70
2019-05-17T19:53:07.900Z,14.70
2019-05-17T19:55:36.507Z,14.10
2019-05-17T19:58:05.209Z,14.00
2019-05-17T20:00:33.821Z,14.40
2019-05-17T20:03:02.479Z,14.20
2019-05-17T20:05:31.040Z,14.20
2019-05-17T20:07:59.601Z,14.10
2019-05-17T20:12:56.392Z,14.20
2019-05-17T20:15:34.130Z,14.30
2019-05-17T20:17:55.232Z,14.20
2019-05-17T20:20:23.934Z,13.90
2019-05-17T20:22:52.493Z,14.00
2019-05-17T20:25:21.191Z,13.90
2019-05-17T20:27:49.759Z,13.60
2019-05-17T20:30:18.740Z,13.50
2019-05-17T20:32:47.374Z,13.50
2019-05-17T20:35:17.950Z,13.90
2019-05-17T20:37:46.284Z,13.90
2019-05-17T20:40:15.257Z,13.30
2019-05-17T20:42:43.811Z,13.30
2019-05-17T20:45:12.723Z,13.40
2019-05-17T20:47:41.284Z,13.20
2019-05-17T20:50:11.767Z,13.50
2019-05-17T20:52:40.351Z,13.20
2019-05-17T20:55:09.147Z,13.30
2019-05-17T20:57:38.171Z,13.30
2019-05-17T21:00:08.316Z,13.10
2019-05-17T21:02:36.878Z,13.20
2019-05-17T21:05:07.377Z,13.00
2019-05-17T21:07:35.937Z,13.10
2019-05-17T21:10:05.823Z,13.40
2019-05-17T21:12:34.381Z,13.10
2019-05-17T21:15:03.307Z,13.10
2019-05-17T21:20:00.073Z,13.10
2019-05-17T21:22:28.670Z,13.00
2019-05-17T21:24:57.205Z,12.60
2019-05-17T21:27:25.788Z,12.90
2019-05-17T21:29:54.322Z,12.50
2019-05-17T21:32:22.907Z,12.50
2019-05-17T21:34:51.443Z,12.70
2019-05-17T21:37:20.099Z,12.70
2019-05-17T21:39:48.655Z,12.70
2019-05-17T21:42:17.220Z,12.60
2019-05-17T21:44:45.784Z,12.70
2019-05-17T21:47:14.339Z,12.60
2019-05-17T21:49:42.944Z,12.50
2019-05-17T21:52:11.528Z,12.20
2019-05-17T21:54:40.039Z,12.00
2019-05-17T21:57:08.603Z,12.10
2019-05-17T21:59:37.143Z,12.20
2019-05-17T22:02:05.867Z,12.10
2019-05-17T22:04:34.408Z,12.30
2019-05-17T22:09:31.254Z,12.20
2019-05-17T22:12:01.456Z,12.30
2019-05-17T22:14:30.073Z,12.20
2019-05-17T22:16:58.655Z,12.30
2019-05-17T22:19:27.197Z,12.40
2019-05-17T22:21:55.734Z,11.70
2019-05-17T22:24:24.306Z,11.50
2019-05-17T22:29:21.067Z,11.70
2019-05-17T22:31:49.607Z,11.70
2019-05-17T22:34:18.247Z,11.80
2019-05-17T22:36:46.783Z,11.90
2019-05-17T22:39:15.344Z,12.10
2019-05-17T22:41:43.879Z,12.00
2019-05-17T22:44:12.463Z,11.40
2019-05-17T22:46:41.012Z,11.50
2019-05-17T22:49:09.586Z,11.60
2019-05-17T22:51:38.216Z,11.50
2019-05-17T22:54:06.932Z,11.60
2019-05-17T22:56:35.535Z,11.90
2019-05-17T22:59:04.263Z,11.50
2019-05-17T23:01:32.872Z,11.80
2019-05-17T23:04:01.444Z,11.80
2019-05-17T23:06:29.971Z,11.60
2019-05-17T23:08:58.564Z,11.40
2019-05-17T23:11:27.092Z,11.40
2019-05-17T23:13:55.730Z,11.50
2019-05-17T23:16:24.303Z,11.20
2019-05-17T23:19:08.478Z,11.70
2019-05-17T23:21:37.461Z,11.20
2019-05-17T23:24:06.531Z,11.30
2019-05-17T23:26:35.140Z,11.20
2019-05-17T23:29:03.910Z,11.40
2019-05-17T23:31:32.528Z,11.40
2019-05-17T23:34:01.084Z,11.50
2019-05-17T23:36:29.692Z,11.80
2019-05-17T23:38:58.257Z,11.30
2019-05-17T23:41:26.863Z,11.50
2019-05-17T23:43:55.430Z,11.00
2019-05-17T23:48:52.195Z,10.90
2019-05-17T23:51:20.813Z,10.90
2019-05-17T23:53:49.367Z,10.90
2019-05-17T23:56:17.899Z,11.00
2019-05-17T23:58:46.388Z,11.20
